createdAt,value
2019-02-11T00:01:12.591Z,3.10
2019-02-11T00:03:41.911Z,2.90
2019-02-11T00:06:11.894Z,3.70
2019-02-11T00:08:42.245Z,3.30
2019-02-11T00:11:10.315Z,3.00
2019-02-11T00:13:40.403Z,2.93
2019-02-11T00:16:11.826Z,2.57
2019-02-11T00:18:41.797Z,3.27
2019-02-11T00:21:10.438Z,2.90
2019-02-11T00:23:38.814Z,3.87
2019-02-11T00:26:07.119Z,3.03
2019-02-11T00:28:35.769Z,3.47
2019-02-11T00:31:04.147Z,2.17
2019-02-11T00:33:32.592Z,2.90
2019-02-11T00:36:00.968Z,2.70
2019-02-11T00:38:29.342Z,3.13
2019-02-11T00:40:57.660Z,2.83
2019-02-11T00:43:26.004Z,3.23
2019-02-11T00:45:54.368Z,3.30
2019-02-11T00:48:22.683Z,3.03
2019-02-11T00:50:50.941Z,3.00
2019-02-11T00:53:19.294Z,2.90
2019-02-11T00:55:47.584Z,2.70
2019-02-11T00:58:15.903Z,2.83
2019-02-11T01:00:44.264Z,3.07
2019-02-11T01:03:12.638Z,3.50
2019-02-11T01:05:41.043Z,2.80
2019-02-11T01:08:09.330Z,2.67
2019-02-11T01:10:37.706Z,3.03
2019-02-11T01:13:06.080Z,3.40
2019-02-11T01:15:34.455Z,3.47
2019-02-11T01:18:02.762Z,2.80
2019-02-11T01:20:31.144Z,3.10
2019-02-11T01:22:59.544Z,3.03
2019-02-11T01:25:27.831Z,2.83
2019-02-11T01:27:56.139Z,3.17
2019-02-11T01:30:24.547Z,2.70
2019-02-11T01:32:52.903Z,3.37
2019-02-11T01:35:21.196Z,2.63
2019-02-11T01:37:49.590Z,3.03
2019-02-11T01:40:17.961Z,3.00
2019-02-11T01:42:46.274Z,2.50
2019-02-11T01:45:14.650Z,2.33
2019-02-11T01:47:43.052Z,2.70
2019-02-11T01:50:12.587Z,2.40
2019-02-11T01:52:40.949Z,2.07
2019-02-11T01:55:09.337Z,2.20
2019-02-11T01:57:37.716Z,2.37
2019-02-11T02:00:11.850Z,2.40
2019-02-11T02:02:40.202Z,2.20
2019-02-11T02:05:09.398Z,2.03
2019-02-11T02:07:37.781Z,2.37
2019-02-11T02:10:09.488Z,1.83
2019-02-11T02:12:37.880Z,2.07
2019-02-11T02:15:07.760Z,2.27
2019-02-11T02:17:36.152Z,2.27
2019-02-11T02:20:07.405Z,2.77
2019-02-11T02:22:35.762Z,1.97
2019-02-11T02:25:05.582Z,2.27
2019-02-11T02:27:33.974Z,2.53
2019-02-11T02:30:02.634Z,2.13
2019-02-11T02:32:31.000Z,1.87
2019-02-11T02:34:59.377Z,2.40
2019-02-11T02:37:27.696Z,2.10
2019-02-11T02:39:56.053Z,3.00
2019-02-11T02:42:24.444Z,2.23
2019-02-11T02:44:52.810Z,1.80
2019-02-11T02:47:21.468Z,1.97
2019-02-11T02:49:50.156Z,1.57
2019-02-11T02:52:18.532Z,2.33
2019-02-11T02:54:46.932Z,1.83
2019-02-11T02:57:15.287Z,1.90
2019-02-11T02:59:43.943Z,2.63
2019-02-11T03:02:12.323Z,2.10
2019-02-11T03:04:40.708Z,2.07
2019-02-11T03:07:09.091Z,1.70
2019-02-11T03:09:37.439Z,1.83
2019-02-11T03:12:05.828Z,2.47
2019-02-11T03:14:34.206Z,2.33
2019-02-11T03:17:02.584Z,2.23
2019-02-11T03:19:30.985Z,2.47
2019-02-11T03:21:59.359Z,2.37
2019-02-11T03:24:27.645Z,2.50
2019-02-11T03:26:55.956Z,2.30
2019-02-11T03:29:24.325Z,2.80
2019-02-11T03:31:52.721Z,2.23
2019-02-11T03:34:21.000Z,2.03
2019-02-11T03:36:49.310Z,2.40
2019-02-11T03:39:17.772Z,2.50
2019-02-11T03:41:46.139Z,2.27
2019-02-11T03:44:15.397Z,2.73
2019-02-11T03:46:43.876Z,2.87
2019-02-11T03:49:12.580Z,2.27
2019-02-11T03:51:41.262Z,2.33
2019-02-11T03:54:09.640Z,2.33
2019-02-11T03:56:38.011Z,2.30
2019-02-11T03:59:06.385Z,3.00
2019-02-11T04:01:35.063Z,2.40
2019-02-11T04:04:03.468Z,3.23
2019-02-11T04:06:31.820Z,3.50
2019-02-11T04:09:00.186Z,3.33
2019-02-11T04:11:28.480Z,4.07
2019-02-11T04:13:56.876Z,2.60
2019-02-11T04:16:25.176Z,3.10
2019-02-11T04:18:53.466Z,3.20
2019-02-11T04:21:21.846Z,3.40
2019-02-11T04:23:50.215Z,3.40
2019-02-11T04:26:18.614Z,3.27
2019-02-11T04:28:46.981Z,3.33
2019-02-11T04:31:15.338Z,3.23
2019-02-11T04:33:43.711Z,3.83
2019-02-11T04:36:12.125Z,4.03
2019-02-11T04:38:40.482Z,4.47
2019-02-11T04:41:08.782Z,4.30
2019-02-11T04:43:37.079Z,4.13
2019-02-11T04:46:05.478Z,3.67
2019-02-11T04:48:33.859Z,4.10
2019-02-11T04:51:02.253Z,4.63
2019-02-11T04:53:30.540Z,4.70
2019-02-11T04:55:58.910Z,3.73
2019-02-11T04:58:27.580Z,3.70
2019-02-11T05:00:55.873Z,3.40
2019-02-11T05:03:24.260Z,3.93
2019-02-11T05:05:52.561Z,4.50
2019-02-11T05:08:20.918Z,3.53
2019-02-11T05:10:49.310Z,4.00
2019-02-11T05:13:17.671Z,4.03
2019-02-11T05:15:46.061Z,3.87
2019-02-11T05:18:16.776Z,4.53
2019-02-11T05:20:44.471Z,4.10
2019-02-11T05:23:12.787Z,4.13
2019-02-11T05:25:41.165Z,4.03
2019-02-11T05:28:09.933Z,3.47
2019-02-11T05:30:38.245Z,3.27
2019-02-11T05:33:06.669Z,3.53
2019-02-11T05:35:35.028Z,3.80
2019-02-11T05:38:03.441Z,4.70
2019-02-11T05:40:31.789Z,3.90
2019-02-11T05:43:00.156Z,4.30
2019-02-11T05:45:28.570Z,3.93
2019-02-11T05:47:56.935Z,4.00
2019-02-11T05:50:25.318Z,4.47
2019-02-11T05:52:54.032Z,4.80
2019-02-11T05:55:23.895Z,3.90
2019-02-11T05:57:52.483Z,4.80
2019-02-11T06:00:20.860Z,4.10
2019-02-11T06:02:49.552Z,5.03
2019-02-11T06:05:17.953Z,4.63
2019-02-11T06:07:46.300Z,4.40
2019-02-11T06:10:15.573Z,4.07
2019-02-11T06:12:43.936Z,4.80
2019-02-11T06:15:12.315Z,4.37
2019-02-11T06:17:40.697Z,5.03
2019-02-11T06:20:09.989Z,4.20
2019-02-11T06:22:38.705Z,5.20
2019-02-11T06:25:08.106Z,5.53
2019-02-11T06:27:36.876Z,5.17
2019-02-11T06:30:11.118Z,4.80
2019-02-11T06:32:39.495Z,4.50
2019-02-11T06:35:08.861Z,5.07
2019-02-11T06:37:37.252Z,6.07
2019-02-11T06:40:08.991Z,8.50
2019-02-11T06:42:37.513Z,8.83
2019-02-11T06:45:13.092Z,8.30
2019-02-11T06:47:38.449Z,6.63
2019-02-11T06:50:14.753Z,6.07
2019-02-11T06:52:43.027Z,5.30
2019-02-11T06:55:12.143Z,6.60
2019-02-11T06:57:40.530Z,5.57
2019-02-11T07:00:13.630Z,5.33
2019-02-11T07:02:42.010Z,6.03
2019-02-11T07:05:10.384Z,6.47
2019-02-11T07:07:38.712Z,6.33
2019-02-11T07:10:10.461Z,6.37
2019-02-11T07:12:38.816Z,7.00
2019-02-11T07:15:21.214Z,6.50
2019-02-11T07:17:43.423Z,6.33
2019-02-11T07:20:11.795Z,5.97
2019-02-11T07:22:40.147Z,6.23
2019-02-11T07:25:09.440Z,6.67
2019-02-11T07:27:37.799Z,6.70
2019-02-11T07:30:11.549Z,6.67
2019-02-11T07:32:39.917Z,6.27
2019-02-11T07:35:08.302Z,5.87
2019-02-11T07:37:36.667Z,6.10
2019-02-11T07:40:08.255Z,5.43
2019-02-11T07:42:38.277Z,6.57
2019-02-11T07:45:10.621Z,6.53
2019-02-11T07:47:39.449Z,7.27
2019-02-11T07:50:07.821Z,7.80
2019-02-11T07:52:36.607Z,7.13
2019-02-11T07:55:05.770Z,8.33
2019-02-11T07:57:34.134Z,7.23
2019-02-11T08:00:02.527Z,6.50
2019-02-11T08:02:30.898Z,7.13
2019-02-11T08:04:59.284Z,7.67
2019-02-11T08:07:27.643Z,7.20
2019-02-11T08:09:55.936Z,7.13
2019-02-11T08:12:24.287Z,7.23
2019-02-11T08:14:52.913Z,6.80
2019-02-11T08:17:21.306Z,6.00
2019-02-11T08:19:49.573Z,5.27
2019-02-11T08:22:17.907Z,5.07
2019-02-11T08:24:46.223Z,5.07
2019-02-11T08:27:14.586Z,5.57
2019-02-11T08:29:42.992Z,4.40
2019-02-11T08:32:11.424Z,4.70
2019-02-11T08:34:39.719Z,4.87
2019-02-11T08:37:08.095Z,5.40
2019-02-11T08:39:36.429Z,5.43
2019-02-11T08:42:04.782Z,4.90
2019-02-11T08:44:33.669Z,4.53
2019-02-11T08:47:02.241Z,4.97
2019-02-11T08:49:30.631Z,4.90
2019-02-11T08:51:58.965Z,5.57
2019-02-11T08:54:27.321Z,4.67
2019-02-11T08:56:57.377Z,4.97
2019-02-11T08:59:25.888Z,4.33
2019-02-11T09:01:54.258Z,4.40
2019-02-11T09:04:23.000Z,4.83
2019-02-11T09:06:51.394Z,4.23
2019-02-11T09:09:19.849Z,4.70
2019-02-11T09:11:48.247Z,4.60
2019-02-11T09:14:16.695Z,5.20
2019-02-11T09:16:45.074Z,5.10
2019-02-11T09:19:13.756Z,5.13
2019-02-11T09:21:42.142Z,5.77
2019-02-11T09:24:10.508Z,4.90
2019-02-11T09:26:38.844Z,4.53
2019-02-11T09:29:07.224Z,5.07
2019-02-11T09:31:35.600Z,5.30
2019-02-11T09:34:04.010Z,5.80
2019-02-11T09:36:32.484Z,5.13
2019-02-11T09:39:01.164Z,4.77
2019-02-11T09:41:29.453Z,5.00
2019-02-11T09:43:57.844Z,4.20
2019-02-11T09:46:26.177Z,4.63
2019-02-11T09:48:54.543Z,4.10
2019-02-11T09:51:24.754Z,4.77
2019-02-11T09:53:53.120Z,4.80
2019-02-11T09:56:21.504Z,4.30
2019-02-11T09:58:49.891Z,4.93
2019-02-11T10:01:18.250Z,5.10
2019-02-11T10:03:46.529Z,3.90
2019-02-11T10:06:14.851Z,4.93
2019-02-11T10:08:43.194Z,4.20
2019-02-11T10:11:11.515Z,4.27
2019-02-11T10:13:39.868Z,5.07
2019-02-11T10:16:12.616Z,4.10
2019-02-11T10:18:38.275Z,4.90
2019-02-11T10:21:06.641Z,4.00
2019-02-11T10:23:35.004Z,3.57
2019-02-11T10:26:03.415Z,4.00
2019-02-11T10:28:31.722Z,3.83
2019-02-11T10:31:00.412Z,3.57
2019-02-11T10:33:28.787Z,4.13
2019-02-11T10:35:57.168Z,4.03
2019-02-11T10:38:25.546Z,3.97
2019-02-11T10:40:53.909Z,3.63
2019-02-11T10:43:22.297Z,3.77
2019-02-11T10:45:50.681Z,3.47
2019-02-11T10:48:19.089Z,3.33
2019-02-11T10:50:47.457Z,4.10
2019-02-11T10:53:16.209Z,4.27
2019-02-11T10:55:44.605Z,3.63
2019-02-11T10:58:12.970Z,3.40
2019-02-11T11:00:41.602Z,4.43
2019-02-11T11:03:09.932Z,3.80
2019-02-11T11:05:38.290Z,3.53
2019-02-11T11:08:06.964Z,3.60
2019-02-11T11:10:37.561Z,2.80
2019-02-11T11:13:05.954Z,3.43
2019-02-11T11:15:34.312Z,3.40
2019-02-11T11:18:02.697Z,3.63
2019-02-11T11:20:31.405Z,3.50
2019-02-11T11:22:59.774Z,3.07
2019-02-11T11:25:28.043Z,3.10
2019-02-11T11:27:56.329Z,2.60
2019-02-11T11:30:24.637Z,3.10
2019-02-11T11:32:52.975Z,2.87
2019-02-11T11:35:21.347Z,2.60
2019-02-11T11:37:49.733Z,2.67
2019-02-11T11:40:21.931Z,2.67
2019-02-11T11:42:50.576Z,2.17
2019-02-11T11:45:19.645Z,2.40
2019-02-11T11:47:47.983Z,2.37
2019-02-11T11:50:17.150Z,1.80
2019-02-11T11:52:45.781Z,1.73
2019-02-11T11:55:18.606Z,2.00
2019-02-11T11:57:47.006Z,2.37
2019-02-11T12:00:18.633Z,2.87
2019-02-11T12:03:00.259Z,2.60
2019-02-11T12:05:17.145Z,2.50
2019-02-11T12:07:45.619Z,2.87
2019-02-11T12:10:13.983Z,3.27
2019-02-11T12:12:42.356Z,2.67
2019-02-11T12:15:12.996Z,3.37
2019-02-11T12:17:41.801Z,2.40
2019-02-11T12:20:12.162Z,1.70
2019-02-11T12:22:40.526Z,1.80
2019-02-11T12:25:11.270Z,2.10
2019-02-11T12:27:39.723Z,1.90
2019-02-11T12:30:14.066Z,2.00
2019-02-11T12:32:42.484Z,1.70
2019-02-11T12:35:12.800Z,1.80
2019-02-11T12:37:41.169Z,1.77
2019-02-11T12:40:11.214Z,1.90
2019-02-11T12:42:39.590Z,2.00
2019-02-11T12:45:11.311Z,1.73
2019-02-11T12:47:39.676Z,1.27
2019-02-11T12:50:13.166Z,1.70
2019-02-11T12:52:41.498Z,1.73
2019-02-11T12:55:15.030Z,2.30
2019-02-11T12:57:43.429Z,2.13
2019-02-11T13:00:17.013Z,1.80
2019-02-11T13:02:44.547Z,2.17
2019-02-11T13:05:12.980Z,2.10
2019-02-11T13:07:41.363Z,2.47
2019-02-11T13:10:13.430Z,1.67
2019-02-11T13:12:41.808Z,2.10
2019-02-11T13:15:11.852Z,2.40
2019-02-11T13:17:40.565Z,2.57
2019-02-11T13:20:12.063Z,2.30
2019-02-11T13:22:40.784Z,2.63
2019-02-11T13:25:17.301Z,2.30
2019-02-11T13:27:45.662Z,1.93
2019-02-11T13:30:24.495Z,1.93
2019-02-11T13:32:52.881Z,1.90
2019-02-11T13:35:21.254Z,1.70
2019-02-11T13:37:54.312Z,1.97
2019-02-11T13:40:19.973Z,2.20
2019-02-11T13:42:48.348Z,1.60
2019-02-11T13:45:21.097Z,1.93
2019-02-11T13:47:54.661Z,1.80
2019-02-11T13:50:24.633Z,2.10
2019-02-11T13:52:53.078Z,2.07
2019-02-11T13:55:21.593Z,1.80
2019-02-11T13:57:49.976Z,2.20
2019-02-11T14:00:27.539Z,1.97
2019-02-11T14:02:58.545Z,1.77
2019-02-11T14:05:27.866Z,2.07
2019-02-11T14:07:56.517Z,1.90
2019-02-11T14:10:24.876Z,2.57
2019-02-11T14:12:53.268Z,2.10
2019-02-11T14:15:21.819Z,2.07
2019-02-11T14:17:50.175Z,2.50
2019-02-11T14:20:21.348Z,2.10
2019-02-11T14:22:49.671Z,2.70
2019-02-11T14:25:18.031Z,2.77
2019-02-11T14:27:46.430Z,3.50
2019-02-11T14:30:19.953Z,3.40
2019-02-11T14:32:48.366Z,2.77
2019-02-11T14:35:17.693Z,3.30
2019-02-11T14:37:46.040Z,3.40
2019-02-11T14:40:14.897Z,3.30
2019-02-11T14:42:43.354Z,3.40
2019-02-11T14:45:17.167Z,3.70
2019-02-11T14:47:45.561Z,3.10
2019-02-11T14:50:13.919Z,2.83
2019-02-11T14:52:42.314Z,3.57
2019-02-11T14:55:11.114Z,3.23
2019-02-11T14:57:39.460Z,3.37
2019-02-11T15:00:20.019Z,7.93
2019-02-11T15:02:48.397Z,3.80
2019-02-11T15:05:17.224Z,3.80
2019-02-11T15:07:45.600Z,3.27
2019-02-11T15:10:14.449Z,3.40
2019-02-11T15:12:42.814Z,3.80
2019-02-11T15:15:12.219Z,3.23
2019-02-11T15:17:43.026Z,3.80
2019-02-11T15:20:13.040Z,3.67
2019-02-11T15:22:41.401Z,3.30
2019-02-11T15:25:12.041Z,4.17
2019-02-11T15:27:40.378Z,3.00
2019-02-11T15:30:11.580Z,2.83
2019-02-11T15:32:39.950Z,2.73
2019-02-11T15:35:09.090Z,2.73
2019-02-11T15:37:37.451Z,2.43
2019-02-11T15:40:14.679Z,2.70
2019-02-11T15:42:43.048Z,3.30
2019-02-11T15:45:13.284Z,3.53
2019-02-11T15:47:41.658Z,3.30
2019-02-11T15:50:12.764Z,4.10
2019-02-11T15:52:41.162Z,3.80
2019-02-11T15:55:20.617Z,3.40
2019-02-11T15:57:48.932Z,3.33
2019-02-11T16:00:19.959Z,3.50
2019-02-11T16:02:48.323Z,3.30
2019-02-11T16:05:16.997Z,5.30
2019-02-11T16:07:45.591Z,5.17
2019-02-11T16:10:16.228Z,7.00
2019-02-11T16:12:44.602Z,4.40
2019-02-11T16:15:12.977Z,4.53
2019-02-11T16:17:41.361Z,4.63
2019-02-11T16:20:14.956Z,4.80
2019-02-11T16:22:43.488Z,3.80
2019-02-11T16:25:13.702Z,3.77
2019-02-11T16:27:42.072Z,4.17
2019-02-11T16:30:12.904Z,3.67
2019-02-11T16:32:41.288Z,4.20
2019-02-11T16:35:11.429Z,4.10
2019-02-11T16:37:39.799Z,3.80
2019-02-11T16:40:11.477Z,12.67
2019-02-11T16:42:39.867Z,4.10
2019-02-11T16:45:10.283Z,6.17
2019-02-11T16:47:38.678Z,5.30
2019-02-11T16:50:09.682Z,4.60
2019-02-11T16:52:38.075Z,4.97
2019-02-11T16:55:08.861Z,5.90
2019-02-11T16:57:37.197Z,6.37
2019-02-11T17:00:14.750Z,6.63
2019-02-11T17:02:43.112Z,10.80
2019-02-11T17:05:12.027Z,11.93
2019-02-11T17:07:41.932Z,7.57
2019-02-11T17:10:12.153Z,8.33
2019-02-11T17:12:40.551Z,7.27
2019-02-11T17:15:11.262Z,7.27
2019-02-11T17:17:39.653Z,9.40
2019-02-11T17:20:10.165Z,10.60
2019-02-11T17:22:38.542Z,8.43
2019-02-11T17:25:09.074Z,5.70
2019-02-11T17:27:37.327Z,5.83
2019-02-11T17:30:11.471Z,6.17
2019-02-11T17:32:39.792Z,6.47
2019-02-11T17:35:10.073Z,9.17
2019-02-11T17:37:38.853Z,9.67
2019-02-11T17:40:12.908Z,8.07
2019-02-11T17:42:41.303Z,9.13
2019-02-11T17:45:12.948Z,8.33
2019-02-11T17:47:41.315Z,8.43
2019-02-11T17:50:10.840Z,7.33
2019-02-11T17:52:39.197Z,7.10
2019-02-11T17:55:12.368Z,7.93
2019-02-11T17:57:40.746Z,8.60
2019-02-11T18:00:13.993Z,8.53
2019-02-11T18:02:42.330Z,9.87
2019-02-11T18:05:10.769Z,10.70
2019-02-11T18:07:39.157Z,9.40
2019-02-11T18:10:07.518Z,9.50
2019-02-11T18:12:35.929Z,10.20
2019-02-11T18:15:05.296Z,10.83
2019-02-11T18:17:33.636Z,12.13
2019-02-11T18:20:02.025Z,11.30
2019-02-11T18:22:30.527Z,13.53
2019-02-11T18:24:58.872Z,30.67
2019-02-11T18:27:27.642Z,31.40
2019-02-11T18:29:56.007Z,20.63
2019-02-11T18:32:24.397Z,12.30
2019-02-11T18:34:52.694Z,10.43
2019-02-11T18:37:21.113Z,9.33
2019-02-11T18:39:49.470Z,11.23
2019-02-11T18:42:17.792Z,9.40
2019-02-11T18:44:46.159Z,10.07
2019-02-11T18:47:14.530Z,9.07
2019-02-11T18:49:42.900Z,8.87
2019-02-11T18:52:11.279Z,9.43
2019-02-11T18:54:39.727Z,9.10
2019-02-11T18:57:08.093Z,10.40
2019-02-11T18:59:36.462Z,9.97
2019-02-11T19:02:04.835Z,9.47
2019-02-11T19:04:33.215Z,10.33
2019-02-11T19:07:01.621Z,9.10
2019-02-11T19:09:29.935Z,9.10
2019-02-11T19:11:58.300Z,10.30
2019-02-11T19:14:26.646Z,9.73
2019-02-11T19:16:54.966Z,9.23
2019-02-11T19:19:23.698Z,9.03
2019-02-11T19:21:52.077Z,11.73
2019-02-11T19:24:20.375Z,11.43
2019-02-11T19:26:48.700Z,10.93
2019-02-11T19:29:17.117Z,11.27
2019-02-11T19:31:45.514Z,11.13
2019-02-11T19:34:13.879Z,11.13
2019-02-11T19:36:42.255Z,11.63
2019-02-11T19:39:10.849Z,18.27
2019-02-11T19:41:39.297Z,15.33
2019-02-11T19:44:07.659Z,13.87
2019-02-11T19:46:35.994Z,14.60
2019-02-11T19:49:04.289Z,19.87
2019-02-11T19:51:32.758Z,17.07
2019-02-11T19:54:01.466Z,14.60
2019-02-11T19:56:29.869Z,13.93
2019-02-11T19:58:58.232Z,16.40
2019-02-11T20:01:26.645Z,14.33
2019-02-11T20:03:54.999Z,12.50
2019-02-11T20:06:23.753Z,12.93
2019-02-11T20:08:52.152Z,11.97
2019-02-11T20:11:20.594Z,15.20
2019-02-11T20:13:48.975Z,14.97
2019-02-11T20:16:17.353Z,13.87
2019-02-11T20:18:45.730Z,10.73
2019-02-11T20:21:14.126Z,11.20
2019-02-11T20:23:42.494Z,33.13
2019-02-11T20:26:10.917Z,22.10
2019-02-11T20:28:39.326Z,15.20
2019-02-11T20:31:07.642Z,13.57
2019-02-11T20:33:36.030Z,14.53
2019-02-11T20:36:04.393Z,14.60
2019-02-11T20:38:32.805Z,15.00
2019-02-11T20:41:01.180Z,19.57
2019-02-11T20:43:29.549Z,19.43
2019-02-11T20:45:57.934Z,19.67
2019-02-11T20:48:26.318Z,21.27
2019-02-11T20:50:54.593Z,21.30
2019-02-11T20:53:22.925Z,20.53
2019-02-11T20:55:51.234Z,22.10
2019-02-11T20:58:19.571Z,25.73
2019-02-11T21:00:47.923Z,41.40
2019-02-11T21:03:16.237Z,32.20
2019-02-11T21:05:44.531Z,26.33
2019-02-11T21:08:12.893Z,26.37
2019-02-11T21:10:41.287Z,20.70
2019-02-11T21:13:09.648Z,20.53
2019-02-11T21:15:38.062Z,20.40
2019-02-11T21:18:06.434Z,20.00
2019-02-11T21:20:38.207Z,17.83
2019-02-11T21:23:08.297Z,20.40
2019-02-11T21:25:36.785Z,20.70
2019-02-11T21:28:05.157Z,20.80
2019-02-11T21:30:33.533Z,20.87
2019-02-11T21:33:02.390Z,21.40
2019-02-11T21:35:30.714Z,23.17
2019-02-11T21:37:59.113Z,25.07
2019-02-11T21:40:27.828Z,25.13
2019-02-11T21:42:56.190Z,23.87
2019-02-11T21:45:24.487Z,21.90
2019-02-11T21:47:52.854Z,24.67
2019-02-11T21:50:26.790Z,24.17
2019-02-11T21:52:51.773Z,22.77
2019-02-11T21:55:22.090Z,22.80
2019-02-11T21:57:50.484Z,23.47
2019-02-11T22:00:21.154Z,25.30
2019-02-11T22:02:49.451Z,22.93
2019-02-11T22:05:17.778Z,25.03
2019-02-11T22:07:46.149Z,27.53
2019-02-11T22:10:19.455Z,44.70
2019-02-11T22:12:47.844Z,46.73
2019-02-11T22:15:16.246Z,34.60
2019-02-11T22:17:44.538Z,33.87
2019-02-11T22:20:16.178Z,32.40
2019-02-11T22:22:44.747Z,30.57
2019-02-11T22:25:13.675Z,37.00
2019-02-11T22:27:42.050Z,39.10
2019-02-11T22:30:16.739Z,41.60
2019-02-11T22:32:45.122Z,37.77
2019-02-11T22:35:13.484Z,35.43
2019-02-11T22:37:41.888Z,41.80
2019-02-11T22:40:12.316Z,44.70
2019-02-11T22:42:40.696Z,31.00
2019-02-11T22:45:12.064Z,35.27
2019-02-11T22:47:40.790Z,39.83
2019-02-11T22:50:11.594Z,34.00
2019-02-11T22:52:39.989Z,38.60
2019-02-11T22:55:12.857Z,39.83
2019-02-11T22:57:41.570Z,42.53
2019-02-11T23:00:26.493Z,39.47
2019-02-11T23:02:54.898Z,37.37
2019-02-11T23:05:23.207Z,47.43
2019-02-11T23:07:51.584Z,46.63
2019-02-11T23:10:19.998Z,35.13
2019-02-11T23:12:48.375Z,27.57
2019-02-11T23:15:16.736Z,30.13
2019-02-11T23:17:45.056Z,48.07
2019-02-11T23:20:13.433Z,42.93
2019-02-11T23:22:41.859Z,33.80
2019-02-11T23:25:10.509Z,29.20
2019-02-11T23:27:38.885Z,33.37
2019-02-11T23:30:13.465Z,31.50
2019-02-11T23:32:38.349Z,28.20
2019-02-11T23:35:06.787Z,22.93
2019-02-11T23:37:35.528Z,29.80
2019-02-11T23:40:05.957Z,32.47
2019-02-11T23:42:34.639Z,34.50
2019-02-11T23:45:03.088Z,33.13
2019-02-11T23:47:31.484Z,41.03
2019-02-11T23:49:59.860Z,32.87
2019-02-11T23:52:28.269Z,32.57
2019-02-11T23:54:56.646Z,27.27
2019-02-11T23:57:24.997Z,24.93
2019-02-11T23:59:53.788Z,27.17
